<?xml version="1.0" encoding="UTF-8" standalone="no" ?>
<gpx xmlns="http://www.topografix.com/GPX/1/1" xmlns:xsi="http://www.w3.org/2001/XMLSchema-instance" xsi:schemaLocation="http://www.topografix.com/GPX/1/1 http://www.topografix.com/GPX/1/1/gpx.xsd" version="1.1" creator="VisuGPX - https://www.visugpx.com">
  <metadata>
    <name>13034123-18 ROUGE _ Chartreuse de Valbonne depuis l'Ardèche</name>
  </metadata>
  <trk>
    <name><![CDATA[13034123-18 ROUGE _ Chartreuse de Valbonne depuis l'Ardèche]]></name>
    <trkseg>
      <trkpt lat="44.30273" lon="4.55679">
        <ele>88</ele>
        <time>2021-09-29T08:18:05Z</time>
      </trkpt>
      <trkpt lat="44.30198" lon="4.55509">
        <ele>94</ele>
        <time>2021-09-29T08:18:38Z</time>
      </trkpt>
      <trkpt lat="44.30134" lon="4.55483">
        <ele>96</ele>
        <time>2021-09-29T08:18:54Z</time>
      </trkpt>
      <trkpt lat="44.30128" lon="4.55299">
        <ele>97</ele>
        <time>2021-09-29T08:19:25Z</time>
      </trkpt>
      <trkpt lat="44.30079" lon="4.55285">
        <ele>96</ele>
        <time>2021-09-29T08:19:36Z</time>
      </trkpt>
      <trkpt lat="44.2986" lon="4.55097">
        <ele>93</ele>
        <time>2021-09-29T08:20:36Z</time>
      </trkpt>
      <trkpt lat="44.29813" lon="4.54884">
        <ele>94</ele>
        <time>2021-09-29T08:21:14Z</time>
      </trkpt>
      <trkpt lat="44.29702" lon="4.54899">
        <ele>82</ele>
        <time>2021-09-29T08:21:40Z</time>
      </trkpt>
      <trkpt lat="44.29596" lon="4.54859">
        <ele>74</ele>
        <time>2021-09-29T08:22:05Z</time>
      </trkpt>
      <trkpt lat="44.29485" lon="4.54794">
        <ele>75</ele>
        <time>2021-09-29T08:22:33Z</time>
      </trkpt>
      <trkpt lat="44.29426" lon="4.54668">
        <ele>75</ele>
        <time>2021-09-29T08:22:59Z</time>
      </trkpt>
      <trkpt lat="44.29333" lon="4.54682">
        <ele>75</ele>
        <time>2021-09-29T08:23:20Z</time>
      </trkpt>
      <trkpt lat="44.29299" lon="4.54509">
        <ele>85</ele>
        <time>2021-09-29T08:23:50Z</time>
      </trkpt>
      <trkpt lat="44.29243" lon="4.54516">
        <ele>93</ele>
        <time>2021-09-29T08:24:04Z</time>
      </trkpt>
      <trkpt lat="44.29147" lon="4.54549">
        <ele>103</ele>
        <time>2021-09-29T08:24:27Z</time>
      </trkpt>
      <trkpt lat="44.29046" lon="4.54484">
        <ele>114</ele>
        <time>2021-09-29T08:24:53Z</time>
      </trkpt>
      <trkpt lat="44.28945" lon="4.54455">
        <ele>120</ele>
        <time>2021-09-29T08:25:17Z</time>
      </trkpt>
      <trkpt lat="44.28829" lon="4.5439">
        <ele>126</ele>
        <time>2021-09-29T08:25:46Z</time>
      </trkpt>
      <trkpt lat="44.28788" lon="4.54296">
        <ele>136</ele>
        <time>2021-09-29T08:26:04Z</time>
      </trkpt>
      <trkpt lat="44.28685" lon="4.54242">
        <ele>140</ele>
        <time>2021-09-29T08:26:30Z</time>
      </trkpt>
      <trkpt lat="44.28579" lon="4.54195">
        <ele>144</ele>
        <time>2021-09-29T08:26:56Z</time>
      </trkpt>
      <trkpt lat="44.28478" lon="4.54126">
        <ele>144</ele>
        <time>2021-09-29T08:27:22Z</time>
      </trkpt>
      <trkpt lat="44.28413" lon="4.54079">
        <ele>144</ele>
        <time>2021-09-29T08:27:39Z</time>
      </trkpt>
      <trkpt lat="44.28313" lon="4.53986">
        <ele>141</ele>
        <time>2021-09-29T08:28:07Z</time>
      </trkpt>
      <trkpt lat="44.28253" lon="4.53975">
        <ele>138</ele>
        <time>2021-09-29T08:28:22Z</time>
      </trkpt>
      <trkpt lat="44.28183" lon="4.53982">
        <ele>140</ele>
        <time>2021-09-29T08:28:38Z</time>
      </trkpt>
      <trkpt lat="44.28103" lon="4.53993">
        <ele>141</ele>
        <time>2021-09-29T08:28:57Z</time>
      </trkpt>
      <trkpt lat="44.28031" lon="4.53978">
        <ele>144</ele>
        <time>2021-09-29T08:29:14Z</time>
      </trkpt>
      <trkpt lat="44.27853" lon="4.54209">
        <ele>147</ele>
        <time>2021-09-29T08:30:10Z</time>
      </trkpt>
      <trkpt lat="44.27721" lon="4.54437">
        <ele>135</ele>
        <time>2021-09-29T08:30:59Z</time>
      </trkpt>
      <trkpt lat="44.27723" lon="4.54653">
        <ele>129</ele>
        <time>2021-09-29T08:31:36Z</time>
      </trkpt>
      <trkpt lat="44.27649" lon="4.54639">
        <ele>129</ele>
        <time>2021-09-29T08:31:53Z</time>
      </trkpt>
      <trkpt lat="44.27543" lon="4.54664">
        <ele>127</ele>
        <time>2021-09-29T08:32:18Z</time>
      </trkpt>
      <trkpt lat="44.27537" lon="4.5457">
        <ele>134</ele>
        <time>2021-09-29T08:32:34Z</time>
      </trkpt>
      <trkpt lat="44.27517" lon="4.54433">
        <ele>126</ele>
        <time>2021-09-29T08:32:57Z</time>
      </trkpt>
      <trkpt lat="44.27576" lon="4.54354">
        <ele>126</ele>
        <time>2021-09-29T08:33:16Z</time>
      </trkpt>
      <trkpt lat="44.27486" lon="4.54278">
        <ele>124</ele>
        <time>2021-09-29T08:33:41Z</time>
      </trkpt>
      <trkpt lat="44.27556" lon="4.54162">
        <ele>130</ele>
        <time>2021-09-29T08:34:06Z</time>
      </trkpt>
      <trkpt lat="44.2753" lon="4.54097">
        <ele>129</ele>
        <time>2021-09-29T08:34:19Z</time>
      </trkpt>
      <trkpt lat="44.27649" lon="4.53899">
        <ele>141</ele>
        <time>2021-09-29T08:35:02Z</time>
      </trkpt>
      <trkpt lat="44.27589" lon="4.53838">
        <ele>139</ele>
        <time>2021-09-29T08:35:19Z</time>
      </trkpt>
      <trkpt lat="44.2753" lon="4.53863">
        <ele>138</ele>
        <time>2021-09-29T08:35:34Z</time>
      </trkpt>
      <trkpt lat="44.27457" lon="4.53892">
        <ele>137</ele>
        <time>2021-09-29T08:35:51Z</time>
      </trkpt>
      <trkpt lat="44.27318" lon="4.53964">
        <ele>132</ele>
        <time>2021-09-29T08:36:26Z</time>
      </trkpt>
      <trkpt lat="44.27178" lon="4.53888">
        <ele>137</ele>
        <time>2021-09-29T08:37:01Z</time>
      </trkpt>
      <trkpt lat="44.27062" lon="4.53827">
        <ele>144</ele>
        <time>2021-09-29T08:37:30Z</time>
      </trkpt>
      <trkpt lat="44.26951" lon="4.5382">
        <ele>151</ele>
        <time>2021-09-29T08:37:56Z</time>
      </trkpt>
      <trkpt lat="44.26837" lon="4.53755">
        <ele>164</ele>
        <time>2021-09-29T08:38:25Z</time>
      </trkpt>
      <trkpt lat="44.26731" lon="4.53693">
        <ele>168</ele>
        <time>2021-09-29T08:38:52Z</time>
      </trkpt>
      <trkpt lat="44.26607" lon="4.53618">
        <ele>174</ele>
        <time>2021-09-29T08:39:23Z</time>
      </trkpt>
      <trkpt lat="44.2661" lon="4.53462">
        <ele>186</ele>
        <time>2021-09-29T08:39:49Z</time>
      </trkpt>
      <trkpt lat="44.26654" lon="4.53394">
        <ele>190</ele>
        <time>2021-09-29T08:40:05Z</time>
      </trkpt>
      <trkpt lat="44.26824" lon="4.53336">
        <ele>184</ele>
        <time>2021-09-29T08:40:45Z</time>
      </trkpt>
      <trkpt lat="44.26817" lon="4.53264">
        <ele>194</ele>
        <time>2021-09-29T08:40:58Z</time>
      </trkpt>
      <trkpt lat="44.26711" lon="4.53181">
        <ele>216</ele>
        <time>2021-09-29T08:41:26Z</time>
      </trkpt>
      <trkpt lat="44.26667" lon="4.53105">
        <ele>225</ele>
        <time>2021-09-29T08:41:42Z</time>
      </trkpt>
      <trkpt lat="44.26589" lon="4.52954">
        <ele>236</ele>
        <time>2021-09-29T08:42:13Z</time>
      </trkpt>
      <trkpt lat="44.26525" lon="4.52881">
        <ele>235</ele>
        <time>2021-09-29T08:42:33Z</time>
      </trkpt>
      <trkpt lat="44.26452" lon="4.52845">
        <ele>237</ele>
        <time>2021-09-29T08:42:51Z</time>
      </trkpt>
      <trkpt lat="44.2638" lon="4.52831">
        <ele>238</ele>
        <time>2021-09-29T08:43:08Z</time>
      </trkpt>
      <trkpt lat="44.26331" lon="4.52748">
        <ele>242</ele>
        <time>2021-09-29T08:43:26Z</time>
      </trkpt>
      <trkpt lat="44.26289" lon="4.52654">
        <ele>238</ele>
        <time>2021-09-29T08:43:44Z</time>
      </trkpt>
      <trkpt lat="44.26163" lon="4.52596">
        <ele>239</ele>
        <time>2021-09-29T08:44:15Z</time>
      </trkpt>
      <trkpt lat="44.26093" lon="4.52567">
        <ele>248</ele>
        <time>2021-09-29T08:44:32Z</time>
      </trkpt>
      <trkpt lat="44.2603" lon="4.52541">
        <ele>252</ele>
        <time>2021-09-29T08:44:48Z</time>
      </trkpt>
      <trkpt lat="44.25984" lon="4.52559">
        <ele>254</ele>
        <time>2021-09-29T08:44:59Z</time>
      </trkpt>
      <trkpt lat="44.25899" lon="4.52611">
        <ele>257</ele>
        <time>2021-09-29T08:45:21Z</time>
      </trkpt>
      <trkpt lat="44.25623" lon="4.5255">
        <ele>268</ele>
        <time>2021-09-29T08:46:26Z</time>
      </trkpt>
      <trkpt lat="44.25497" lon="4.52611">
        <ele>284</ele>
        <time>2021-09-29T08:46:57Z</time>
      </trkpt>
      <trkpt lat="44.25365" lon="4.5262">
        <ele>294</ele>
        <time>2021-09-29T08:47:28Z</time>
      </trkpt>
      <trkpt lat="44.25256" lon="4.52832">
        <ele>306</ele>
        <time>2021-09-29T08:48:11Z</time>
      </trkpt>
      <trkpt lat="44.25002" lon="4.53075">
        <ele>320</ele>
        <time>2021-09-29T08:49:23Z</time>
      </trkpt>
      <trkpt lat="44.24919" lon="4.53218">
        <ele>326</ele>
        <time>2021-09-29T08:49:54Z</time>
      </trkpt>
      <trkpt lat="44.24947" lon="4.53524">
        <ele>329</ele>
        <time>2021-09-29T08:50:46Z</time>
      </trkpt>
      <trkpt lat="44.24841" lon="4.53973">
        <ele>335</ele>
        <time>2021-09-29T08:52:05Z</time>
      </trkpt>
      <trkpt lat="44.24775" lon="4.54189">
        <ele>338</ele>
        <time>2021-09-29T08:52:44Z</time>
      </trkpt>
      <trkpt lat="44.24712" lon="4.54313">
        <ele>348</ele>
        <time>2021-09-29T08:53:10Z</time>
      </trkpt>
      <trkpt lat="44.24653" lon="4.54325">
        <ele>351</ele>
        <time>2021-09-29T08:53:23Z</time>
      </trkpt>
      <trkpt lat="44.24627" lon="4.54353">
        <ele>347</ele>
        <time>2021-09-29T08:53:31Z</time>
      </trkpt>
      <trkpt lat="44.24499" lon="4.54392">
        <ele>347</ele>
        <time>2021-09-29T08:54:02Z</time>
      </trkpt>
      <trkpt lat="44.2454" lon="4.54445">
        <ele>337</ele>
        <time>2021-09-29T08:54:15Z</time>
      </trkpt>
      <trkpt lat="44.24487" lon="4.54557">
        <ele>330</ele>
        <time>2021-09-29T08:54:37Z</time>
      </trkpt>
      <trkpt lat="44.2448" lon="4.5458">
        <ele>328</ele>
        <time>2021-09-29T08:54:41Z</time>
      </trkpt>
      <trkpt lat="44.24445" lon="4.54708">
        <ele>318</ele>
        <time>2021-09-29T08:55:04Z</time>
      </trkpt>
      <trkpt lat="44.24545" lon="4.54751">
        <ele>297</ele>
        <time>2021-09-29T08:55:29Z</time>
      </trkpt>
      <trkpt lat="44.24571" lon="4.54758">
        <ele>293</ele>
        <time>2021-09-29T08:55:35Z</time>
      </trkpt>
      <trkpt lat="44.24592" lon="4.54785">
        <ele>289</ele>
        <time>2021-09-29T08:55:42Z</time>
      </trkpt>
      <trkpt lat="44.24625" lon="4.5487">
        <ele>283</ele>
        <time>2021-09-29T08:55:58Z</time>
      </trkpt>
      <trkpt lat="44.24637" lon="4.54914">
        <ele>281</ele>
        <time>2021-09-29T08:56:06Z</time>
      </trkpt>
      <trkpt lat="44.24654" lon="4.54955">
        <ele>281</ele>
        <time>2021-09-29T08:56:14Z</time>
      </trkpt>
      <trkpt lat="44.2467" lon="4.54978">
        <ele>281</ele>
        <time>2021-09-29T08:56:19Z</time>
      </trkpt>
      <trkpt lat="44.24645" lon="4.55057">
        <ele>277</ele>
        <time>2021-09-29T08:56:33Z</time>
      </trkpt>
      <trkpt lat="44.24571" lon="4.55061">
        <ele>260</ele>
        <time>2021-09-29T08:56:51Z</time>
      </trkpt>
      <trkpt lat="44.24575" lon="4.55014">
        <ele>266</ele>
        <time>2021-09-29T08:56:59Z</time>
      </trkpt>
      <trkpt lat="44.24568" lon="4.54974">
        <ele>271</ele>
        <time>2021-09-29T08:57:06Z</time>
      </trkpt>
      <trkpt lat="44.24556" lon="4.54955">
        <ele>271</ele>
        <time>2021-09-29T08:57:10Z</time>
      </trkpt>
      <trkpt lat="44.24516" lon="4.54953">
        <ele>264</ele>
        <time>2021-09-29T08:57:19Z</time>
      </trkpt>
      <trkpt lat="44.24462" lon="4.54891">
        <ele>279</ele>
        <time>2021-09-29T08:57:35Z</time>
      </trkpt>
      <trkpt lat="44.24438" lon="4.54894">
        <ele>280</ele>
        <time>2021-09-29T08:57:41Z</time>
      </trkpt>
      <trkpt lat="44.24423" lon="4.54931">
        <ele>271</ele>
        <time>2021-09-29T08:57:48Z</time>
      </trkpt>
      <trkpt lat="44.24424" lon="4.54961">
        <ele>265</ele>
        <time>2021-09-29T08:57:53Z</time>
      </trkpt>
      <trkpt lat="44.24397" lon="4.55011">
        <ele>258</ele>
        <time>2021-09-29T08:58:04Z</time>
      </trkpt>
      <trkpt lat="44.24299" lon="4.55049">
        <ele>260</ele>
        <time>2021-09-29T08:58:27Z</time>
      </trkpt>
      <trkpt lat="44.24286" lon="4.55108">
        <ele>250</ele>
        <time>2021-09-29T08:58:38Z</time>
      </trkpt>
      <trkpt lat="44.24261" lon="4.55102">
        <ele>251</ele>
        <time>2021-09-29T08:58:44Z</time>
      </trkpt>
      <trkpt lat="44.24229" lon="4.55061">
        <ele>258</ele>
        <time>2021-09-29T08:58:54Z</time>
      </trkpt>
      <trkpt lat="44.24211" lon="4.55133">
        <ele>246</ele>
        <time>2021-09-29T08:59:07Z</time>
      </trkpt>
      <trkpt lat="44.24184" lon="4.55164">
        <ele>239</ele>
        <time>2021-09-29T08:59:15Z</time>
      </trkpt>
      <trkpt lat="44.2416" lon="4.55148">
        <ele>240</ele>
        <time>2021-09-29T08:59:21Z</time>
      </trkpt>
      <trkpt lat="44.24129" lon="4.55085">
        <ele>251</ele>
        <time>2021-09-29T08:59:34Z</time>
      </trkpt>
      <trkpt lat="44.24074" lon="4.55055">
        <ele>255</ele>
        <time>2021-09-29T08:59:48Z</time>
      </trkpt>
      <trkpt lat="44.24006" lon="4.55066">
        <ele>247</ele>
        <time>2021-09-29T09:00:04Z</time>
      </trkpt>
      <trkpt lat="44.23945" lon="4.55063">
        <ele>241</ele>
        <time>2021-09-29T09:00:18Z</time>
      </trkpt>
      <trkpt lat="44.23938" lon="4.55049">
        <ele>242</ele>
        <time>2021-09-29T09:00:21Z</time>
      </trkpt>
      <trkpt lat="44.2392" lon="4.54993">
        <ele>248</ele>
        <time>2021-09-29T09:00:31Z</time>
      </trkpt>
      <trkpt lat="44.23899" lon="4.54992">
        <ele>247</ele>
        <time>2021-09-29T09:00:36Z</time>
      </trkpt>
      <trkpt lat="44.2388" lon="4.55026">
        <ele>244</ele>
        <time>2021-09-29T09:00:43Z</time>
      </trkpt>
      <trkpt lat="44.23854" lon="4.55034">
        <ele>244</ele>
        <time>2021-09-29T09:00:49Z</time>
      </trkpt>
      <trkpt lat="44.23844" lon="4.55116">
        <ele>237</ele>
        <time>2021-09-29T09:01:03Z</time>
      </trkpt>
      <trkpt lat="44.2386" lon="4.55208">
        <ele>228</ele>
        <time>2021-09-29T09:01:19Z</time>
      </trkpt>
      <trkpt lat="44.23881" lon="4.5532">
        <ele>214</ele>
        <time>2021-09-29T09:01:38Z</time>
      </trkpt>
      <trkpt lat="44.23923" lon="4.55393">
        <ele>204</ele>
        <time>2021-09-29T09:01:54Z</time>
      </trkpt>
      <trkpt lat="44.23939" lon="4.55449">
        <ele>204</ele>
        <time>2021-09-29T09:02:04Z</time>
      </trkpt>
      <trkpt lat="44.23906" lon="4.55646">
        <ele>200</ele>
        <time>2021-09-29T09:02:38Z</time>
      </trkpt>
      <trkpt lat="44.23913" lon="4.55727">
        <ele>197</ele>
        <time>2021-09-29T09:02:52Z</time>
      </trkpt>
      <trkpt lat="44.24098" lon="4.55687">
        <ele>183</ele>
        <time>2021-09-29T09:03:35Z</time>
      </trkpt>
      <trkpt lat="44.24164" lon="4.55722">
        <ele>183</ele>
        <time>2021-09-29T09:03:52Z</time>
      </trkpt>
      <trkpt lat="44.24213" lon="4.55774">
        <ele>181</ele>
        <time>2021-09-29T09:04:06Z</time>
      </trkpt>
      <trkpt lat="44.24236" lon="4.55848">
        <ele>179</ele>
        <time>2021-09-29T09:04:20Z</time>
      </trkpt>
      <trkpt lat="44.24338" lon="4.55884">
        <ele>178</ele>
        <time>2021-09-29T09:04:44Z</time>
      </trkpt>
      <trkpt lat="44.24378" lon="4.55926">
        <ele>175</ele>
        <time>2021-09-29T09:04:56Z</time>
      </trkpt>
      <trkpt lat="44.24415" lon="4.55924">
        <ele>177</ele>
        <time>2021-09-29T09:05:05Z</time>
      </trkpt>
      <trkpt lat="44.24435" lon="4.55961">
        <ele>175</ele>
        <time>2021-09-29T09:05:12Z</time>
      </trkpt>
      <trkpt lat="44.24512" lon="4.55992">
        <ele>172</ele>
        <time>2021-09-29T09:05:31Z</time>
      </trkpt>
      <trkpt lat="44.24535" lon="4.56056">
        <ele>170</ele>
        <time>2021-09-29T09:05:43Z</time>
      </trkpt>
      <trkpt lat="44.24481" lon="4.56079">
        <ele>175</ele>
        <time>2021-09-29T09:05:56Z</time>
      </trkpt>
      <trkpt lat="44.24494" lon="4.56189">
        <ele>189</ele>
        <time>2021-09-29T09:06:15Z</time>
      </trkpt>
      <trkpt lat="44.24493" lon="4.56243">
        <ele>198</ele>
        <time>2021-09-29T09:06:24Z</time>
      </trkpt>
      <trkpt lat="44.24545" lon="4.56242">
        <ele>192</ele>
        <time>2021-09-29T09:06:36Z</time>
      </trkpt>
      <trkpt lat="44.24584" lon="4.56279">
        <ele>192</ele>
        <time>2021-09-29T09:06:47Z</time>
      </trkpt>
      <trkpt lat="44.24584" lon="4.56376">
        <ele>205</ele>
        <time>2021-09-29T09:07:03Z</time>
      </trkpt>
      <trkpt lat="44.24656" lon="4.56371">
        <ele>197</ele>
        <time>2021-09-29T09:07:20Z</time>
      </trkpt>
      <trkpt lat="44.24714" lon="4.56412">
        <ele>197</ele>
        <time>2021-09-29T09:07:35Z</time>
      </trkpt>
      <trkpt lat="44.24737" lon="4.56466">
        <ele>201</ele>
        <time>2021-09-29T09:07:46Z</time>
      </trkpt>
      <trkpt lat="44.24797" lon="4.56543">
        <ele>202</ele>
        <time>2021-09-29T09:08:05Z</time>
      </trkpt>
      <trkpt lat="44.24928" lon="4.56692">
        <ele>204</ele>
        <time>2021-09-29T09:08:44Z</time>
      </trkpt>
      <trkpt lat="44.24986" lon="4.56853">
        <ele>204</ele>
        <time>2021-09-29T09:09:14Z</time>
      </trkpt>
      <trkpt lat="44.25085" lon="4.57092">
        <ele>193</ele>
        <time>2021-09-29T09:10:01Z</time>
      </trkpt>
      <trkpt lat="44.25121" lon="4.57126">
        <ele>187</ele>
        <time>2021-09-29T09:10:11Z</time>
      </trkpt>
      <trkpt lat="44.25139" lon="4.57183">
        <ele>187</ele>
        <time>2021-09-29T09:10:21Z</time>
      </trkpt>
      <trkpt lat="44.2533" lon="4.57296">
        <ele>169</ele>
        <time>2021-09-29T09:11:10Z</time>
      </trkpt>
      <trkpt lat="44.2535" lon="4.57281">
        <ele>165</ele>
        <time>2021-09-29T09:11:15Z</time>
      </trkpt>
      <trkpt lat="44.25311" lon="4.57239">
        <ele>167</ele>
        <time>2021-09-29T09:11:26Z</time>
      </trkpt>
      <trkpt lat="44.25267" lon="4.57154">
        <ele>165</ele>
        <time>2021-09-29T09:11:44Z</time>
      </trkpt>
      <trkpt lat="44.25192" lon="4.57063">
        <ele>165</ele>
        <time>2021-09-29T09:12:07Z</time>
      </trkpt>
      <trkpt lat="44.25182" lon="4.57023">
        <ele>163</ele>
        <time>2021-09-29T09:12:14Z</time>
      </trkpt>
      <trkpt lat="44.25159" lon="4.5701">
        <ele>166</ele>
        <time>2021-09-29T09:12:20Z</time>
      </trkpt>
      <trkpt lat="44.25161" lon="4.56952">
        <ele>161</ele>
        <time>2021-09-29T09:12:30Z</time>
      </trkpt>
      <trkpt lat="44.25138" lon="4.56905">
        <ele>163</ele>
        <time>2021-09-29T09:12:39Z</time>
      </trkpt>
      <trkpt lat="44.25122" lon="4.56856">
        <ele>163</ele>
        <time>2021-09-29T09:12:48Z</time>
      </trkpt>
      <trkpt lat="44.25121" lon="4.56793">
        <ele>159</ele>
        <time>2021-09-29T09:12:59Z</time>
      </trkpt>
      <trkpt lat="44.25094" lon="4.56686">
        <ele>158</ele>
        <time>2021-09-29T09:13:18Z</time>
      </trkpt>
      <trkpt lat="44.25112" lon="4.5666">
        <ele>159</ele>
        <time>2021-09-29T09:13:24Z</time>
      </trkpt>
      <trkpt lat="44.25158" lon="4.56715">
        <ele>157</ele>
        <time>2021-09-29T09:13:38Z</time>
      </trkpt>
      <trkpt lat="44.25179" lon="4.56735">
        <ele>156</ele>
        <time>2021-09-29T09:13:44Z</time>
      </trkpt>
      <trkpt lat="44.25209" lon="4.56746">
        <ele>161</ele>
        <time>2021-09-29T09:13:51Z</time>
      </trkpt>
      <trkpt lat="44.25203" lon="4.56779">
        <ele>157</ele>
        <time>2021-09-29T09:13:57Z</time>
      </trkpt>
      <trkpt lat="44.25237" lon="4.5684">
        <ele>157</ele>
        <time>2021-09-29T09:14:10Z</time>
      </trkpt>
      <trkpt lat="44.25329" lon="4.56943">
        <ele>154</ele>
        <time>2021-09-29T09:14:37Z</time>
      </trkpt>
      <trkpt lat="44.25363" lon="4.56941">
        <ele>156</ele>
        <time>2021-09-29T09:14:45Z</time>
      </trkpt>
      <trkpt lat="44.2533" lon="4.56911">
        <ele>160</ele>
        <time>2021-09-29T09:14:55Z</time>
      </trkpt>
      <trkpt lat="44.25248" lon="4.56768">
        <ele>167</ele>
        <time>2021-09-29T09:15:25Z</time>
      </trkpt>
      <trkpt lat="44.25276" lon="4.56701">
        <ele>181</ele>
        <time>2021-09-29T09:15:38Z</time>
      </trkpt>
      <trkpt lat="44.25222" lon="4.56672">
        <ele>174</ele>
        <time>2021-09-29T09:15:52Z</time>
      </trkpt>
      <trkpt lat="44.25171" lon="4.5662">
        <ele>173</ele>
        <time>2021-09-29T09:16:06Z</time>
      </trkpt>
      <trkpt lat="44.25151" lon="4.56495">
        <ele>187</ele>
        <time>2021-09-29T09:16:28Z</time>
      </trkpt>
      <trkpt lat="44.25112" lon="4.56406">
        <ele>192</ele>
        <time>2021-09-29T09:16:45Z</time>
      </trkpt>
      <trkpt lat="44.25021" lon="4.56283">
        <ele>199</ele>
        <time>2021-09-29T09:17:15Z</time>
      </trkpt>
      <trkpt lat="44.25061" lon="4.5631">
        <ele>201</ele>
        <time>2021-09-29T09:17:25Z</time>
      </trkpt>
      <trkpt lat="44.25112" lon="4.56333">
        <ele>204</ele>
        <time>2021-09-29T09:17:38Z</time>
      </trkpt>
      <trkpt lat="44.25171" lon="4.56304">
        <ele>220</ele>
        <time>2021-09-29T09:17:52Z</time>
      </trkpt>
      <trkpt lat="44.25202" lon="4.56331">
        <ele>221</ele>
        <time>2021-09-29T09:18:01Z</time>
      </trkpt>
      <trkpt lat="44.25273" lon="4.56427">
        <ele>220</ele>
        <time>2021-09-29T09:18:24Z</time>
      </trkpt>
      <trkpt lat="44.25292" lon="4.56422">
        <ele>222</ele>
        <time>2021-09-29T09:18:29Z</time>
      </trkpt>
      <trkpt lat="44.25282" lon="4.56384">
        <ele>226</ele>
        <time>2021-09-29T09:18:35Z</time>
      </trkpt>
      <trkpt lat="44.25217" lon="4.56241">
        <ele>239</ele>
        <time>2021-09-29T09:19:04Z</time>
      </trkpt>
      <trkpt lat="44.25131" lon="4.56126">
        <ele>244</ele>
        <time>2021-09-29T09:19:31Z</time>
      </trkpt>
      <trkpt lat="44.25097" lon="4.56013">
        <ele>252</ele>
        <time>2021-09-29T09:19:52Z</time>
      </trkpt>
      <trkpt lat="44.25035" lon="4.55898">
        <ele>259</ele>
        <time>2021-09-29T09:20:16Z</time>
      </trkpt>
      <trkpt lat="44.2492" lon="4.558">
        <ele>263</ele>
        <time>2021-09-29T09:20:47Z</time>
      </trkpt>
      <trkpt lat="44.24871" lon="4.55729">
        <ele>264</ele>
        <time>2021-09-29T09:21:04Z</time>
      </trkpt>
      <trkpt lat="44.24839" lon="4.55653">
        <ele>270</ele>
        <time>2021-09-29T09:21:19Z</time>
      </trkpt>
      <trkpt lat="44.248" lon="4.55539">
        <ele>271</ele>
        <time>2021-09-29T09:21:40Z</time>
      </trkpt>
      <trkpt lat="44.24799" lon="4.55453">
        <ele>275</ele>
        <time>2021-09-29T09:21:54Z</time>
      </trkpt>
      <trkpt lat="44.2476" lon="4.55395">
        <ele>280</ele>
        <time>2021-09-29T09:22:08Z</time>
      </trkpt>
      <trkpt lat="44.24709" lon="4.55362">
        <ele>276</ele>
        <time>2021-09-29T09:22:21Z</time>
      </trkpt>
      <trkpt lat="44.24668" lon="4.55307">
        <ele>275</ele>
        <time>2021-09-29T09:22:34Z</time>
      </trkpt>
      <trkpt lat="44.24654" lon="4.55257">
        <ele>275</ele>
        <time>2021-09-29T09:22:43Z</time>
      </trkpt>
      <trkpt lat="44.2465" lon="4.55174">
        <ele>275</ele>
        <time>2021-09-29T09:22:57Z</time>
      </trkpt>
      <trkpt lat="44.24654" lon="4.55122">
        <ele>277</ele>
        <time>2021-09-29T09:23:06Z</time>
      </trkpt>
      <trkpt lat="44.24657" lon="4.55078">
        <ele>279</ele>
        <time>2021-09-29T09:23:13Z</time>
      </trkpt>
      <trkpt lat="44.24674" lon="4.55034">
        <ele>281</ele>
        <time>2021-09-29T09:23:21Z</time>
      </trkpt>
      <trkpt lat="44.24709" lon="4.55037">
        <ele>281</ele>
        <time>2021-09-29T09:23:30Z</time>
      </trkpt>
      <trkpt lat="44.24757" lon="4.55067">
        <ele>280</ele>
        <time>2021-09-29T09:23:42Z</time>
      </trkpt>
      <trkpt lat="44.24773" lon="4.55107">
        <ele>282</ele>
        <time>2021-09-29T09:23:49Z</time>
      </trkpt>
      <trkpt lat="44.24824" lon="4.55169">
        <ele>283</ele>
        <time>2021-09-29T09:24:05Z</time>
      </trkpt>
      <trkpt lat="44.24846" lon="4.55208">
        <ele>284</ele>
        <time>2021-09-29T09:24:14Z</time>
      </trkpt>
      <trkpt lat="44.24909" lon="4.55246">
        <ele>283</ele>
        <time>2021-09-29T09:24:30Z</time>
      </trkpt>
      <trkpt lat="44.24949" lon="4.5526">
        <ele>280</ele>
        <time>2021-09-29T09:24:39Z</time>
      </trkpt>
      <trkpt lat="44.24987" lon="4.55272">
        <ele>277</ele>
        <time>2021-09-29T09:24:48Z</time>
      </trkpt>
      <trkpt lat="44.25033" lon="4.55262">
        <ele>273</ele>
        <time>2021-09-29T09:24:59Z</time>
      </trkpt>
      <trkpt lat="44.25078" lon="4.5528">
        <ele>269</ele>
        <time>2021-09-29T09:25:10Z</time>
      </trkpt>
      <trkpt lat="44.25132" lon="4.55286">
        <ele>265</ele>
        <time>2021-09-29T09:25:23Z</time>
      </trkpt>
      <trkpt lat="44.25258" lon="4.55299">
        <ele>264</ele>
        <time>2021-09-29T09:25:52Z</time>
      </trkpt>
      <trkpt lat="44.25323" lon="4.55325">
        <ele>261</ele>
        <time>2021-09-29T09:26:08Z</time>
      </trkpt>
      <trkpt lat="44.2538" lon="4.5534">
        <ele>261</ele>
        <time>2021-09-29T09:26:22Z</time>
      </trkpt>
      <trkpt lat="44.25453" lon="4.55374">
        <ele>257</ele>
        <time>2021-09-29T09:26:40Z</time>
      </trkpt>
      <trkpt lat="44.2553" lon="4.55425">
        <ele>252</ele>
        <time>2021-09-29T09:26:59Z</time>
      </trkpt>
      <trkpt lat="44.2561" lon="4.55471">
        <ele>245</ele>
        <time>2021-09-29T09:27:20Z</time>
      </trkpt>
      <trkpt lat="44.25661" lon="4.55544">
        <ele>238</ele>
        <time>2021-09-29T09:27:37Z</time>
      </trkpt>
      <trkpt lat="44.25704" lon="4.55529">
        <ele>233</ele>
        <time>2021-09-29T09:27:47Z</time>
      </trkpt>
      <trkpt lat="44.25749" lon="4.55585">
        <ele>229</ele>
        <time>2021-09-29T09:28:01Z</time>
      </trkpt>
      <trkpt lat="44.25766" lon="4.55664">
        <ele>225</ele>
        <time>2021-09-29T09:28:15Z</time>
      </trkpt>
      <trkpt lat="44.2586" lon="4.55698">
        <ele>221</ele>
        <time>2021-09-29T09:28:38Z</time>
      </trkpt>
      <trkpt lat="44.25896" lon="4.55739">
        <ele>222</ele>
        <time>2021-09-29T09:28:49Z</time>
      </trkpt>
      <trkpt lat="44.25931" lon="4.5575">
        <ele>221</ele>
        <time>2021-09-29T09:28:57Z</time>
      </trkpt>
      <trkpt lat="44.25957" lon="4.55756">
        <ele>217</ele>
        <time>2021-09-29T09:29:03Z</time>
      </trkpt>
      <trkpt lat="44.26002" lon="4.55767">
        <ele>211</ele>
        <time>2021-09-29T09:29:14Z</time>
      </trkpt>
      <trkpt lat="44.26087" lon="4.55762">
        <ele>214</ele>
        <time>2021-09-29T09:29:34Z</time>
      </trkpt>
      <trkpt lat="44.26147" lon="4.55794">
        <ele>215</ele>
        <time>2021-09-29T09:29:49Z</time>
      </trkpt>
      <trkpt lat="44.26235" lon="4.55909">
        <ele>209</ele>
        <time>2021-09-29T09:30:17Z</time>
      </trkpt>
      <trkpt lat="44.26271" lon="4.55911">
        <ele>207</ele>
        <time>2021-09-29T09:30:25Z</time>
      </trkpt>
      <trkpt lat="44.26353" lon="4.56043">
        <ele>199</ele>
        <time>2021-09-29T09:30:54Z</time>
      </trkpt>
      <trkpt lat="44.26401" lon="4.56057">
        <ele>198</ele>
        <time>2021-09-29T09:31:06Z</time>
      </trkpt>
      <trkpt lat="44.26437" lon="4.56088">
        <ele>199</ele>
        <time>2021-09-29T09:31:16Z</time>
      </trkpt>
      <trkpt lat="44.26478" lon="4.56104">
        <ele>196</ele>
        <time>2021-09-29T09:31:26Z</time>
      </trkpt>
      <trkpt lat="44.26602" lon="4.56113">
        <ele>194</ele>
        <time>2021-09-29T09:31:55Z</time>
      </trkpt>
      <trkpt lat="44.26626" lon="4.56095">
        <ele>193</ele>
        <time>2021-09-29T09:32:01Z</time>
      </trkpt>
      <trkpt lat="44.26658" lon="4.56105">
        <ele>192</ele>
        <time>2021-09-29T09:32:09Z</time>
      </trkpt>
      <trkpt lat="44.26684" lon="4.56098">
        <ele>191</ele>
        <time>2021-09-29T09:32:15Z</time>
      </trkpt>
      <trkpt lat="44.26801" lon="4.56122">
        <ele>182</ele>
        <time>2021-09-29T09:32:42Z</time>
      </trkpt>
      <trkpt lat="44.26846" lon="4.56132">
        <ele>180</ele>
        <time>2021-09-29T09:32:53Z</time>
      </trkpt>
      <trkpt lat="44.26895" lon="4.56172">
        <ele>182</ele>
        <time>2021-09-29T09:33:06Z</time>
      </trkpt>
      <trkpt lat="44.26926" lon="4.56169">
        <ele>182</ele>
        <time>2021-09-29T09:33:14Z</time>
      </trkpt>
      <trkpt lat="44.26947" lon="4.56204">
        <ele>181</ele>
        <time>2021-09-29T09:33:21Z</time>
      </trkpt>
      <trkpt lat="44.26977" lon="4.56225">
        <ele>182</ele>
        <time>2021-09-29T09:33:29Z</time>
      </trkpt>
      <trkpt lat="44.27049" lon="4.56367">
        <ele>180</ele>
        <time>2021-09-29T09:33:58Z</time>
      </trkpt>
      <trkpt lat="44.27165" lon="4.56522">
        <ele>171</ele>
        <time>2021-09-29T09:34:36Z</time>
      </trkpt>
      <trkpt lat="44.27215" lon="4.56548">
        <ele>167</ele>
        <time>2021-09-29T09:34:48Z</time>
      </trkpt>
      <trkpt lat="44.27287" lon="4.56621">
        <ele>159</ele>
        <time>2021-09-29T09:35:09Z</time>
      </trkpt>
      <trkpt lat="44.27337" lon="4.56683">
        <ele>153</ele>
        <time>2021-09-29T09:35:25Z</time>
      </trkpt>
      <trkpt lat="44.2736" lon="4.56647">
        <ele>149</ele>
        <time>2021-09-29T09:35:33Z</time>
      </trkpt>
      <trkpt lat="44.27392" lon="4.56689">
        <ele>144</ele>
        <time>2021-09-29T09:35:43Z</time>
      </trkpt>
      <trkpt lat="44.27465" lon="4.56727">
        <ele>134</ele>
        <time>2021-09-29T09:36:01Z</time>
      </trkpt>
      <trkpt lat="44.2747" lon="4.56694">
        <ele>129</ele>
        <time>2021-09-29T09:36:07Z</time>
      </trkpt>
      <trkpt lat="44.27504" lon="4.56703">
        <ele>123</ele>
        <time>2021-09-29T09:36:15Z</time>
      </trkpt>
      <trkpt lat="44.27551" lon="4.56733">
        <ele>117</ele>
        <time>2021-09-29T09:36:27Z</time>
      </trkpt>
      <trkpt lat="44.27585" lon="4.5675">
        <ele>112</ele>
        <time>2021-09-29T09:36:35Z</time>
      </trkpt>
      <trkpt lat="44.27661" lon="4.568">
        <ele>105</ele>
        <time>2021-09-29T09:36:55Z</time>
      </trkpt>
      <trkpt lat="44.27747" lon="4.56911">
        <ele>98</ele>
        <time>2021-09-29T09:37:22Z</time>
      </trkpt>
      <trkpt lat="44.27779" lon="4.56944">
        <ele>93</ele>
        <time>2021-09-29T09:37:32Z</time>
      </trkpt>
      <trkpt lat="44.27844" lon="4.56981">
        <ele>86</ele>
        <time>2021-09-29T09:37:48Z</time>
      </trkpt>
      <trkpt lat="44.27962" lon="4.56971">
        <ele>73</ele>
        <time>2021-09-29T09:38:16Z</time>
      </trkpt>
      <trkpt lat="44.27925" lon="4.56855">
        <ele>72</ele>
        <time>2021-09-29T09:38:37Z</time>
      </trkpt>
      <trkpt lat="44.2794" lon="4.56821">
        <ele>71</ele>
        <time>2021-09-29T09:38:43Z</time>
      </trkpt>
      <trkpt lat="44.27898" lon="4.56764">
        <ele>72</ele>
        <time>2021-09-29T09:38:57Z</time>
      </trkpt>
      <trkpt lat="44.27876" lon="4.56718">
        <ele>75</ele>
        <time>2021-09-29T09:39:06Z</time>
      </trkpt>
      <trkpt lat="44.27884" lon="4.56682">
        <ele>75</ele>
        <time>2021-09-29T09:39:13Z</time>
      </trkpt>
      <trkpt lat="44.27917" lon="4.56647">
        <ele>77</ele>
        <time>2021-09-29T09:39:22Z</time>
      </trkpt>
      <trkpt lat="44.27931" lon="4.56612">
        <ele>80</ele>
        <time>2021-09-29T09:39:29Z</time>
      </trkpt>
      <trkpt lat="44.27952" lon="4.56607">
        <ele>82</ele>
        <time>2021-09-29T09:39:34Z</time>
      </trkpt>
      <trkpt lat="44.27978" lon="4.56615">
        <ele>84</ele>
        <time>2021-09-29T09:39:40Z</time>
      </trkpt>
      <trkpt lat="44.28035" lon="4.56607">
        <ele>87</ele>
        <time>2021-09-29T09:39:54Z</time>
      </trkpt>
      <trkpt lat="44.2805" lon="4.56541">
        <ele>90</ele>
        <time>2021-09-29T09:40:05Z</time>
      </trkpt>
      <trkpt lat="44.28066" lon="4.56519">
        <ele>91</ele>
        <time>2021-09-29T09:40:10Z</time>
      </trkpt>
      <trkpt lat="44.28187" lon="4.56683">
        <ele>87</ele>
        <time>2021-09-29T09:40:50Z</time>
      </trkpt>
      <trkpt lat="44.28289" lon="4.56714">
        <ele>88</ele>
        <time>2021-09-29T09:41:14Z</time>
      </trkpt>
      <trkpt lat="44.28439" lon="4.56717">
        <ele>96</ele>
        <time>2021-09-29T09:41:49Z</time>
      </trkpt>
      <trkpt lat="44.28554" lon="4.56701">
        <ele>102</ele>
        <time>2021-09-29T09:42:16Z</time>
      </trkpt>
      <trkpt lat="44.28698" lon="4.56541">
        <ele>112</ele>
        <time>2021-09-29T09:42:59Z</time>
      </trkpt>
      <trkpt lat="44.28835" lon="4.5655">
        <ele>106</ele>
        <time>2021-09-29T09:43:31Z</time>
      </trkpt>
      <trkpt lat="44.2903" lon="4.56595">
        <ele>97</ele>
        <time>2021-09-29T09:44:17Z</time>
      </trkpt>
      <trkpt lat="44.29122" lon="4.56653">
        <ele>93</ele>
        <time>2021-09-29T09:44:41Z</time>
      </trkpt>
      <trkpt lat="44.29172" lon="4.56658">
        <ele>91</ele>
        <time>2021-09-29T09:44:53Z</time>
      </trkpt>
      <trkpt lat="44.29196" lon="4.56639">
        <ele>89</ele>
        <time>2021-09-29T09:44:59Z</time>
      </trkpt>
      <trkpt lat="44.29231" lon="4.56642">
        <ele>85</ele>
        <time>2021-09-29T09:45:07Z</time>
      </trkpt>
      <trkpt lat="44.29261" lon="4.56638">
        <ele>81</ele>
        <time>2021-09-29T09:45:14Z</time>
      </trkpt>
      <trkpt lat="44.29302" lon="4.56631">
        <ele>76</ele>
        <time>2021-09-29T09:45:24Z</time>
      </trkpt>
      <trkpt lat="44.29351" lon="4.56607">
        <ele>72</ele>
        <time>2021-09-29T09:45:36Z</time>
      </trkpt>
      <trkpt lat="44.29389" lon="4.56629">
        <ele>70</ele>
        <time>2021-09-29T09:45:46Z</time>
      </trkpt>
      <trkpt lat="44.29478" lon="4.56668">
        <ele>63</ele>
        <time>2021-09-29T09:46:07Z</time>
      </trkpt>
      <trkpt lat="44.29819" lon="4.56619">
        <ele>54</ele>
        <time>2021-09-29T09:47:28Z</time>
      </trkpt>
      <trkpt lat="44.2991" lon="4.56644">
        <ele>57</ele>
        <time>2021-09-29T09:47:49Z</time>
      </trkpt>
      <trkpt lat="44.29986" lon="4.56459">
        <ele>61</ele>
        <time>2021-09-29T09:48:25Z</time>
      </trkpt>
      <trkpt lat="44.30039" lon="4.56164">
        <ele>76</ele>
        <time>2021-09-29T09:49:16Z</time>
      </trkpt>
      <trkpt lat="44.30146" lon="4.55873">
        <ele>89</ele>
        <time>2021-09-29T09:50:10Z</time>
      </trkpt>
      <trkpt lat="44.30251" lon="4.55692">
        <ele>87</ele>
        <time>2021-09-29T09:50:49Z</time>
      </trkpt>
    </trkseg>
  </trk>
</gpx>